Little Deer Isle, Maine
Current Conditions -  °F | °C
As of 4:35 PM on Saturday 22 Nov 2014 (Local Time) from KBHB Reporting Station
Overcast Overcast  
Wind Chill: 28°   Ceiling: 11000
Heat Index: 36°   Visibility: 10mi
Dew Point: 21°   Wind: 12mph
Humidity: 56%   Direction: 230°SW
Pressure: 30"   Gusts: 22mph
Location:  44.29°N, 68.7°W
Report Text: KBHB 222135Z AUTO 23010G19KT 10SM OVC110 02/M06 A3000 RMK AO1
Loading
Personal Weather Stations






























Interactive Weather Map New forecast layout! Learn more

10-Day Weather Forecast

Advertisements
Track Severe Weather on mobile